Time;durP1;ratioP1;P1;durP2;ratioP2;P2;SDS_P1;SDS_P2;PMS_P1;PMS_P2;Temp;Humidity;BMP_temperature;BMP_pressure;BME280_temperature;BME280_humidity;BME280_pressure;Samples;Min_cycle;Max_cycle;Signal;HPM_P1;HPM_P2
2024/04/07 00:00:22;;;;;;;7.90;2.50;;;16.70;99.90;;;;;;5030578;28;20041;-77
2024/04/07 00:02:52;;;;;;;6.85;2.45;;;16.60;99.90;;;;;;5037462;28;20044;-77
2024/04/07 00:05:18;;;;;;;7.90;2.83;;;16.60;99.90;;;;;;5024327;28;20033;-77
2024/04/07 00:07:44;;;;;;;7.53;2.80;;;16.50;99.90;;;;;;5051833;28;20049;-77
2024/04/07 00:10:10;;;;;;;9.48;3.05;;;16.50;99.90;;;;;;5048150;28;20509;-77
2024/04/07 00:12:36;;;;;;;11.05;2.85;;;16.40;99.90;;;;;;5040825;28;20045;-77
2024/04/07 00:15:03;;;;;;;10.20;2.78;;;16.40;99.90;;;;;;5046659;28;20045;-77
2024/04/07 00:17:28;;;;;;;5.68;2.70;;;16.40;99.90;;;;;;5044053;28;20120;-77
2024/04/07 00:19:54;;;;;;;9.27;2.92;;;16.40;99.90;;;;;;5052905;28;20116;-77
2024/04/07 00:22:20;;;;;;;10.32;2.95;;;16.50;99.90;;;;;;5052709;28;20091;-77
2024/04/07 00:24:45;;;;;;;8.85;3.40;;;16.50;99.90;;;;;;5044476;28;20456;-77
2024/04/07 00:27:11;;;;;;;9.27;2.83;;;16.50;99.90;;;;;;5052358;28;20076;-76
2024/04/07 00:29:37;;;;;;;11.82;3.45;;;16.60;99.90;;;;;;5046559;28;20436;-76
2024/04/07 00:32:03;;;;;;;6.53;2.80;;;16.60;99.90;;;;;;5043602;28;20037;-77
2024/04/07 00:34:28;;;;;;;12.70;2.92;;;16.70;99.90;;;;;;5034529;28;20107;-77
2024/04/07 00:36:54;;;;;;;8.20;3.00;;;16.70;99.90;;;;;;5039682;28;20044;-77
2024/04/07 00:39:20;;;;;;;5.95;2.40;;;16.60;99.90;;;;;;5037778;28;20082;-76
2024/04/07 00:41:46;;;;;;;7.22;2.60;;;16.60;99.90;;;;;;5040152;28;20429;-77
2024/04/07 00:44:11;;;;;;;7.20;2.83;;;16.60;99.90;;;;;;5049893;28;20037;-77
2024/04/07 00:46:41;;;;;;;6.93;3.00;;;16.60;99.90;;;;;;5044571;28;20049;-78
2024/04/07 00:49:07;;;;;;;9.82;3.40;;;16.60;99.90;;;;;;5048704;28;20512;-78
2024/04/07 00:51:34;;;;;;;8.63;3.30;;;16.60;99.90;;;;;;5051238;28;20627;-78
2024/04/07 00:54:01;;;;;;;12.50;3.40;;;16.50;99.90;;;;;;5044122;28;20036;-78
2024/04/07 00:56:27;;;;;;;7.15;2.80;;;16.50;99.90;;;;;;5047619;28;20048;-78
2024/04/07 00:58:52;;;;;;;8.60;3.42;;;16.60;99.90;;;;;;5043188;28;20040;-78
2024/04/07 01:01:18;;;;;;;9.02;3.08;;;16.50;99.90;;;;;;5040378;28;20401;-78
2024/04/07 01:03:43;;;;;;;14.68;3.05;;;16.50;99.90;;;;;;5050903;28;20045;-78
2024/04/07 01:06:09;;;;;;;8.93;3.67;;;16.50;99.90;;;;;;5046479;28;20029;-78
2024/04/07 01:08:36;;;;;;;10.57;3.10;;;16.50;99.90;;;;;;5040145;28;20111;-78
2024/04/07 01:11:02;;;;;;;11.98;3.25;;;16.50;99.90;;;;;;5043909;28;20413;-77
2024/04/07 01:13:27;;;;;;;10.32;3.40;;;16.50;99.90;;;;;;5045122;28;20034;-78
2024/04/07 01:15:53;;;;;;;10.32;2.70;;;16.50;99.90;;;;;;5045173;28;20040;-78
2024/04/07 01:18:19;;;;;;;9.48;3.10;;;16.50;99.90;;;;;;5049012;28;20506;-78
2024/04/07 01:20:45;;;;;;;12.73;3.30;;;16.40;99.90;;;;;;5042787;28;20047;-78
2024/04/07 01:23:14;;;;;;;;;;;16.50;99.90;;;;;;5043031;28;20033;-78
2024/04/07 01:25:40;;;;;;;11.57;3.10;;;16.50;99.90;;;;;;5047003;28;20010;-78
2024/04/07 01:28:05;;;;;;;13.90;2.88;;;16.50;99.90;;;;;;5031248;28;20083;-77
2024/04/07 01:30:31;;;;;;;11.68;3.60;;;16.50;99.90;;;;;;5048123;28;20041;-77
2024/04/07 01:32:57;;;;;;;14.82;3.70;;;16.50;99.90;;;;;;5049670;28;20043;-78
2024/04/07 01:35:22;;;;;;;9.80;2.75;;;16.50;99.90;;;;;;5048804;28;20059;-78
2024/04/07 01:37:48;;;;;;;12.70;2.88;;;16.50;99.90;;;;;;5042719;28;20130;-78
2024/04/07 01:40:14;;;;;;;9.30;3.20;;;16.50;99.90;;;;;;5052809;28;20401;-78
2024/04/07 01:42:41;;;;;;;11.38;3.35;;;16.50;99.90;;;;;;5045830;28;20103;-77
2024/04/07 01:45:08;;;;;;;5.85;2.47;;;16.50;99.90;;;;;;5045897;28;20602;-78
2024/04/07 01:47:35;;;;;;;8.45;2.80;;;16.50;99.90;;;;;;5040292;28;21974;-78
2024/04/07 01:50:02;;;;;;;8.95;2.80;;;16.50;99.90;;;;;;5036397;28;20044;-78
2024/04/07 01:52:27;;;;;;;8.23;2.53;;;16.50;99.90;;;;;;5032429;28;20091;-78
2024/04/07 01:54:53;;;;;;;7.47;2.22;;;16.50;99.90;;;;;;5044986;28;20509;-78
2024/04/07 01:57:19;;;;;;;10.57;2.30;;;16.40;99.90;;;;;;5045708;28;20393;-78
2024/04/07 01:59:44;;;;;;;11.32;2.47;;;16.40;99.90;;;;;;5038158;28;20474;-78
2024/04/07 02:02:10;;;;;;;8.98;2.25;;;16.40;99.90;;;;;;5039275;28;20036;-78
2024/04/07 02:04:36;;;;;;;8.25;2.25;;;16.30;99.90;;;;;;5032036;28;20045;-77
2024/04/07 02:07:02;;;;;;;9.70;2.40;;;16.30;99.90;;;;;;5019722;28;20079;-77
2024/04/07 02:09:28;;;;;;;9.20;2.28;;;16.20;99.90;;;;;;5041749;28;20080;-77
2024/04/07 02:11:55;;;;;;;8.95;2.45;;;16.20;99.90;;;;;;5044534;28;20084;-77
2024/04/07 02:14:20;;;;;;;9.02;2.30;;;16.10;99.90;;;;;;5043984;28;20562;-77
2024/04/07 02:16:46;;;;;;;7.75;2.33;;;16.10;99.90;;;;;;5038434;28;20108;-77
2024/04/07 02:19:13;;;;;;;11.13;2.10;;;16.00;99.90;;;;;;5043393;28;20038;-77
2024/04/07 02:21:38;;;;;;;12.52;2.30;;;16.00;99.90;;;;;;5035987;28;20041;-77
2024/04/07 02:24:05;;;;;;;7.97;2.60;;;16.00;99.90;;;;;;5042209;28;20043;-77
2024/04/07 02:26:31;;;;;;;10.15;2.10;;;15.90;99.90;;;;;;5044213;28;20099;-77
2024/04/07 02:28:57;;;;;;;8.88;2.33;;;15.90;99.90;;;;;;5030682;28;20073;-77
2024/04/07 02:31:23;;;;;;;8.65;2.38;;;15.80;99.90;;;;;;5045800;28;20102;-77
2024/04/07 02:33:49;;;;;;;7.80;2.17;;;15.80;99.90;;;;;;5035835;28;20041;-77
2024/04/07 02:36:16;;;;;;;11.57;2.70;;;15.70;99.90;;;;;;5032027;28;20195;-77
2024/04/07 02:38:42;;;;;;;9.85;2.28;;;15.70;99.90;;;;;;5046648;28;20045;-77
2024/04/07 02:41:08;;;;;;;8.25;2.38;;;15.70;99.90;;;;;;5036222;28;20036;-77
2024/04/07 02:43:34;;;;;;;9.75;2.22;;;15.60;99.90;;;;;;5048202;28;20477;-77
2024/04/07 02:48:45;;;;;;;16.33;2.67;;;15.50;99.90;;;;;;5038556;28;20595;-77
2024/04/07 02:51:11;;;;;;;7.78;2.50;;;15.50;99.90;;;;;;5045473;28;20115;-77
2024/04/07 02:53:37;;;;;;;6.80;2.20;;;15.50;99.90;;;;;;5042052;28;20037;-77
2024/04/07 02:56:02;;;;;;;8.93;2.47;;;15.40;99.90;;;;;;5044995;28;20039;-77
2024/04/07 02:58:28;;;;;;;8.00;2.50;;;15.40;99.90;;;;;;5035700;28;20104;-77
2024/04/07 03:01:05;;;;;;;9.20;2.25;;;15.30;99.90;;;;;;5040400;28;20041;-77
2024/04/07 03:03:31;;;;;;;10.60;2.42;;;15.30;99.90;;;;;;5036122;28;20375;-77
2024/04/07 03:06:09;;;;;;;8.00;2.08;;;15.30;99.90;;;;;;5039737;28;20454;-77
2024/04/07 03:08:36;;;;;;;7.40;2.00;;;15.30;99.90;;;;;;5036185;28;20045;-77
2024/04/07 03:11:03;;;;;;;8.25;2.30;;;15.30;99.90;;;;;;5046157;28;20047;-77
2024/04/07 03:13:29;;;;;;;6.75;2.15;;;15.30;99.90;;;;;;5030921;28;20045;-77
2024/04/07 03:15:55;;;;;;;7.43;2.25;;;15.30;99.90;;;;;;5048497;28;20417;-77
2024/04/07 03:18:21;;;;;;;8.63;2.28;;;15.30;99.90;;;;;;5042711;28;20385;-77
2024/04/07 03:20:47;;;;;;;7.25;1.70;;;15.30;99.90;;;;;;5042626;28;20105;-77
2024/04/07 03:23:13;;;;;;;8.00;2.13;;;15.30;99.90;;;;;;5037444;28;20095;-77
2024/04/07 03:25:39;;;;;;;6.13;2.00;;;15.30;99.90;;;;;;5042049;28;20044;-77
2024/04/07 03:28:05;;;;;;;4.72;1.67;;;15.30;99.90;;;;;;5041465;28;20037;-77
2024/04/07 03:30:32;;;;;;;3.97;1.60;;;15.30;99.90;;;;;;5041123;28;20037;-76
2024/04/07 03:32:58;;;;;;;4.22;1.67;;;15.30;99.90;;;;;;5047124;28;20049;-76
2024/04/07 03:35:24;;;;;;;9.15;2.05;;;15.30;99.90;;;;;;5036684;28;20120;-76
2024/04/07 03:37:50;;;;;;;4.75;1.60;;;15.30;99.90;;;;;;5039579;28;20541;-77
2024/04/07 03:40:16;;;;;;;7.53;1.70;;;15.30;99.90;;;;;;5039490;28;20111;-77
2024/04/07 03:42:42;;;;;;;5.60;1.70;;;15.20;99.90;;;;;;5041978;28;20033;-77
2024/04/07 03:45:09;;;;;;;6.18;1.80;;;15.30;99.90;;;;;;5047944;28;20120;-77
2024/04/07 03:47:38;;;;;;;6.35;1.52;;;15.20;99.90;;;;;;5047496;28;20044;-77
2024/04/07 03:50:05;;;;;;;6.00;1.52;;;15.20;99.90;;;;;;5032756;28;20152;-77
2024/04/07 03:52:31;;;;;;;4.88;1.70;;;15.20;99.90;;;;;;5044694;28;20045;-77
2024/04/07 03:54:57;;;;;;;3.58;1.35;;;15.20;99.90;;;;;;5040726;28;20042;-77
2024/04/07 03:57:22;;;;;;;7.82;1.45;;;15.10;99.90;;;;;;5041122;28;20041;-77
2024/04/07 03:59:48;;;;;;;9.00;1.88;;;15.10;99.90;;;;;;5028772;28;20442;-77
2024/04/07 04:02:28;;;;;;;6.35;1.50;;;15.10;99.90;;;;;;5024243;28;20041;-77
2024/04/07 04:05:02;;;;;;;5.65;1.70;;;15.10;99.90;;;;;;5042132;28;20040;-77
2024/04/07 04:07:29;;;;;;;6.32;1.42;;;15.10;99.90;;;;;;5041070;28;20115;-76
2024/04/07 04:09:56;;;;;;;7.45;2.10;;;15.00;99.90;;;;;;5048311;28;20033;-77
2024/04/07 04:12:23;;;;;;;3.75;1.40;;;15.10;99.90;;;;;;5042470;28;20084;-77
2024/04/07 04:14:50;;;;;;;4.93;1.65;;;15.10;99.90;;;;;;5042033;28;20121;-77
2024/04/07 04:17:16;;;;;;;3.35;1.40;;;15.10;99.90;;;;;;5037695;28;20388;-77
2024/04/07 04:19:41;;;;;;;5.55;1.40;;;15.10;99.90;;;;;;5046201;28;20044;-77
2024/04/07 04:22:07;;;;;;;6.88;1.52;;;15.10;99.90;;;;;;5040077;28;20041;-77
2024/04/07 04:24:33;;;;;;;3.30;1.15;;;15.10;99.90;;;;;;5041728;28;20041;-77
2024/04/07 04:27:00;;;;;;;5.22;1.27;;;15.10;99.90;;;;;;5044570;28;20102;-77
2024/04/07 04:29:26;;;;;;;3.90;1.10;;;15.10;99.90;;;;;;5024711;28;20045;-77
2024/04/07 04:31:51;;;;;;;4.45;0.85;;;15.10;99.90;;;;;;5038766;28;20038;-77
2024/04/07 04:34:17;;;;;;;3.72;1.13;;;15.10;99.90;;;;;;5047908;28;20041;-77
2024/04/07 04:36:42;;;;;;;2.22;0.90;;;15.10;99.90;;;;;;5040771;28;20398;-76
2024/04/07 04:39:08;;;;;;;4.82;1.15;;;15.20;99.90;;;;;;5030150;28;20040;-76
2024/04/07 04:41:34;;;;;;;5.28;1.10;;;15.20;99.90;;;;;;5026074;28;20073;-76
2024/04/07 04:44:00;;;;;;;6.45;1.00;;;15.20;99.90;;;;;;5050380;28;20040;-76
2024/04/07 04:46:26;;;;;;;4.32;1.20;;;15.10;99.90;;;;;;5047401;28;20474;-76
2024/04/07 04:48:52;;;;;;;3.00;0.82;;;15.10;99.90;;;;;;5038057;28;20081;-76
2024/04/07 04:51:18;;;;;;;5.25;0.88;;;15.20;99.90;;;;;;5049713;28;20405;-77
2024/04/07 04:53:44;;;;;;;3.50;0.90;;;15.10;99.90;;;;;;5041202;28;20039;-77
2024/04/07 04:56:09;;;;;;;5.45;1.20;;;15.10;99.90;;;;;;5040249;28;20025;-77
2024/04/07 04:58:35;;;;;;;1.35;0.70;;;15.10;99.90;;;;;;5037307;28;20509;-77
2024/04/07 05:01:11;;;;;;;1.83;0.90;;;15.00;99.90;;;;;;5048398;28;20091;-77
2024/04/07 05:03:37;;;;;;;2.75;0.90;;;15.00;99.90;;;;;;5049799;28;20081;-77
2024/04/07 05:06:13;;;;;;;2.63;0.70;;;14.90;99.90;;;;;;5044664;28;20037;-77
2024/04/07 05:08:42;;;;;;;2.50;0.80;;;14.90;99.90;;;;;;5051991;28;20044;-77
2024/04/07 05:11:08;;;;;;;2.95;0.80;;;14.80;99.90;;;;;;5049255;28;20040;-77
2024/04/07 05:13:35;;;;;;;5.88;0.80;;;14.80;99.90;;;;;;5051734;28;20143;-77
2024/04/07 05:16:02;;;;;;;5.20;0.77;;;14.80;99.90;;;;;;5048854;28;20037;-77
2024/04/07 05:18:28;;;;;;;2.38;0.90;;;14.80;99.90;;;;;;5046648;28;21017;-77
2024/04/07 05:20:55;;;;;;;3.35;0.70;;;14.90;99.90;;;;;;5041340;28;20041;-77
2024/04/07 05:23:21;;;;;;;4.22;0.88;;;14.90;99.90;;;;;;5044031;28;20088;-76
2024/04/07 05:25:47;;;;;;;2.03;0.80;;;14.90;99.90;;;;;;5044124;28;20049;-76
2024/04/07 05:28:12;;;;;;;4.45;0.80;;;14.90;99.90;;;;;;5052059;28;20049;-76
2024/04/07 05:30:38;;;;;;;2.83;0.95;;;14.90;99.90;;;;;;5043667;28;20089;-77
2024/04/07 05:33:05;;;;;;;2.92;0.75;;;14.90;99.90;;;;;;5042975;28;20038;-77
2024/04/07 05:35:34;;;;;;;2.25;0.70;;;14.90;99.90;;;;;;5039024;28;20041;-77
2024/04/07 05:38:00;;;;;;;4.90;0.90;;;14.90;99.90;;;;;;5021397;28;20033;-77
2024/04/07 05:40:26;;;;;;;2.03;0.60;;;14.90;99.90;;;;;;5050650;28;20095;-77
2024/04/07 05:42:53;;;;;;;3.53;1.15;;;14.80;99.90;;;;;;5049134;28;20051;-77
2024/04/07 05:45:18;;;;;;;2.75;0.90;;;15.00;99.90;;;;;;5047818;28;20036;-77
2024/04/07 05:47:51;;;;;;;3.17;1.08;;;14.90;99.90;;;;;;5046657;28;20459;-77
2024/04/07 05:50:17;;;;;;;0.90;0.70;;;14.90;99.90;;;;;;5046739;28;20045;-77
2024/04/07 05:52:43;;;;;;;4.38;1.00;;;15.00;99.90;;;;;;5047797;28;20040;-77
2024/04/07 05:55:09;;;;;;;5.32;1.10;;;15.00;99.90;;;;;;5048928;28;20382;-77
2024/04/07 05:57:38;;;;;;;5.40;1.20;;;15.00;99.90;;;;;;5039991;28;20042;-77
2024/04/07 06:00:08;;;;;;;1.73;0.82;;;15.00;99.90;;;;;;5036197;28;20044;-77
2024/04/07 06:02:36;;;;;;;2.97;0.90;;;15.10;99.90;;;;;;5043307;28;20044;-77
2024/04/07 06:05:02;;;;;;;2.95;0.82;;;15.10;99.90;;;;;;5035319;28;20071;-77
2024/04/07 06:07:28;;;;;;;2.92;0.80;;;15.10;99.90;;;;;;5043051;28;20044;-77
2024/04/07 06:09:55;;;;;;;1.67;0.93;;;15.10;99.90;;;;;;5033766;28;20037;-77
2024/04/07 06:12:21;;;;;;;2.75;0.80;;;15.10;99.90;;;;;;5047594;28;20506;-77
2024/04/07 06:14:47;;;;;;;3.00;0.80;;;15.20;99.90;;;;;;5042992;28;20713;-77
2024/04/07 06:17:13;;;;;;;4.10;0.82;;;15.10;99.90;;;;;;5049378;28;20037;-77
2024/04/07 06:19:39;;;;;;;3.25;0.90;;;15.20;99.90;;;;;;5041364;28;20485;-77
2024/04/07 06:22:05;;;;;;;4.95;1.10;;;15.20;99.90;;;;;;5037624;28;20120;-77
2024/04/07 06:24:30;;;;;;;4.75;0.85;;;15.20;99.90;;;;;;5043731;28;20029;-77
2024/04/07 06:26:56;;;;;;;3.70;0.80;;;15.20;99.90;;;;;;5040546;28;20033;-77
2024/04/07 06:29:22;;;;;;;2.40;0.73;;;15.20;99.90;;;;;;5041560;28;20116;-77
2024/04/07 06:31:47;;;;;;;2.78;0.93;;;15.20;99.90;;;;;;5039857;28;20041;-77
2024/04/07 06:34:13;;;;;;;2.35;0.90;;;15.30;99.90;;;;;;5050691;28;20066;-77
2024/04/07 06:36:38;;;;;;;2.17;0.93;;;15.30;99.90;;;;;;5041215;28;20140;-76
2024/04/07 06:39:04;;;;;;;3.78;1.15;;;15.30;99.90;;;;;;5041537;28;20025;-77
2024/04/07 06:41:30;;;;;;;1.48;0.70;;;15.20;99.90;;;;;;5041850;28;20032;-77
2024/04/07 06:43:56;;;;;;;5.38;0.80;;;15.20;99.90;;;;;;5045321;28;20053;-77
2024/04/07 06:46:21;;;;;;;4.80;0.85;;;15.20;99.90;;;;;;5040861;28;20049;-77
2024/04/07 06:48:47;;;;;;;2.63;1.00;;;15.10;99.90;;;;;;5040084;28;20142;-77
2024/04/07 06:51:12;;;;;;;1.38;0.68;;;15.10;99.90;;;;;;5040937;28;20044;-77
2024/04/07 06:53:38;;;;;;;2.35;0.77;;;15.10;99.90;;;;;;5037968;28;20040;-77
2024/04/07 06:56:04;;;;;;;3.00;1.10;;;15.10;99.90;;;;;;5047586;28;20030;-77
2024/04/07 06:58:31;;;;;;;2.92;0.80;;;15.10;99.90;;;;;;5036328;28;20087;-77
2024/04/07 07:00:58;;;;;;;2.25;0.80;;;15.10;99.90;;;;;;5044031;28;20410;-78
2024/04/07 07:03:24;;;;;;;2.83;0.98;;;15.20;99.90;;;;;;5048863;28;20080;-77
2024/04/07 07:05:50;;;;;;;4.03;1.10;;;15.20;99.90;;;;;;5043678;28;20099;-77
2024/04/07 07:08:15;;;;;;;5.45;1.20;;;15.20;99.90;;;;;;5043023;28;20080;-78
2024/04/07 07:10:41;;;;;;;2.63;1.00;;;15.30;99.90;;;;;;5039912;28;20481;-78
2024/04/07 07:13:07;;;;;;;2.40;1.00;;;15.30;99.90;;;;;;5043770;28;20029;-79
2024/04/07 07:15:32;;;;;;;5.35;1.10;;;15.40;99.90;;;;;;5038393;28;20110;-77
2024/04/07 07:17:58;;;;;;;2.58;1.00;;;15.40;99.90;;;;;;5036256;28;20120;-77
2024/04/07 07:20:23;;;;;;;2.72;0.95;;;15.40;99.90;;;;;;5035776;28;20029;-78
2024/04/07 07:22:49;;;;;;;3.70;1.17;;;15.50;99.90;;;;;;5036711;28;20079;-77
2024/04/07 07:25:14;;;;;;;2.70;1.20;;;15.50;99.90;;;;;;5043207;28;20083;-77
2024/04/07 07:27:40;;;;;;;4.32;1.27;;;15.50;99.90;;;;;;5041705;28;20029;-78
2024/04/07 07:30:06;;;;;;;2.40;1.00;;;15.50;99.90;;;;;;5043314;28;20037;-79
2024/04/07 07:32:32;;;;;;;4.55;1.08;;;15.60;99.90;;;;;;5040845;28;20049;-77
2024/04/07 07:34:58;;;;;;;4.40;1.25;;;15.60;99.90;;;;;;5046724;28;20041;-77
2024/04/07 07:37:23;;;;;;;4.65;1.00;;;15.60;99.90;;;;;;5048996;28;20060;-77
2024/04/07 07:39:49;;;;;;;3.45;1.20;;;15.60;99.90;;;;;;5038698;28;20136;-77
2024/04/07 07:42:14;;;;;;;5.95;1.23;;;15.60;99.90;;;;;;5039974;28;20101;-76
2024/04/07 07:44:40;;;;;;;5.82;1.33;;;15.70;99.90;;;;;;5046077;28;20393;-77
2024/04/07 07:47:06;;;;;;;3.20;1.05;;;15.70;99.90;;;;;;5038282;28;20082;-77
2024/04/07 07:49:31;;;;;;;3.88;1.10;;;15.70;99.90;;;;;;5035330;28;20116;-77
2024/04/07 07:51:57;;;;;;;4.10;0.90;;;15.80;99.90;;;;;;5048107;28;20490;-77
2024/04/07 07:54:24;;;;;;;3.25;0.90;;;15.80;99.90;;;;;;5048295;28;20131;-77
2024/04/07 07:56:49;;;;;;;3.22;1.00;;;15.90;99.90;;;;;;5039199;28;20604;-77
2024/04/07 07:59:15;;;;;;;4.22;0.90;;;15.90;99.90;;;;;;5044617;28;20132;-77
2024/04/07 08:01:41;;;;;;;3.45;0.93;;;15.90;99.90;;;;;;5043532;28;20067;-77
2024/04/07 08:04:06;;;;;;;5.85;1.17;;;15.90;99.90;;;;;;5046955;28;20040;-77
2024/04/07 08:06:32;;;;;;;2.95;0.82;;;16.00;99.90;;;;;;5041503;28;20037;-77
2024/04/07 08:08:58;;;;;;;6.53;1.30;;;16.10;99.90;;;;;;5048399;28;20639;-77
2024/04/07 08:11:23;;;;;;;1.65;0.90;;;16.10;99.90;;;;;;5049480;28;20072;-77
2024/04/07 08:13:50;;;;;;;4.35;1.00;;;16.20;99.90;;;;;;5039992;28;20030;-77
2024/04/07 08:16:16;;;;;;;2.40;1.00;;;16.20;99.90;;;;;;5037031;28;20049;-77
2024/04/07 08:18:42;;;;;;;4.13;1.00;;;16.30;99.90;;;;;;5037332;28;20037;-77
2024/04/07 08:21:07;;;;;;;3.92;1.20;;;16.40;99.90;;;;;;5036337;28;20037;-77
2024/04/07 08:23:33;;;;;;;4.10;1.30;;;16.40;99.90;;;;;;5045584;28;20033;-78
2024/04/07 08:25:58;;;;;;;4.38;1.50;;;16.40;99.90;;;;;;5029522;28;20041;-77
2024/04/07 08:28:25;;;;;;;3.42;1.40;;;16.30;99.90;;;;;;5052727;28;20438;-77
2024/04/07 08:30:51;;;;;;;4.68;1.27;;;16.30;99.90;;;;;;5045027;28;20076;-78
2024/04/07 08:33:17;;;;;;;4.47;1.42;;;16.20;99.90;;;;;;5043535;28;20045;-78
2024/04/07 08:35:45;;;;;;;4.30;1.40;;;16.30;99.90;;;;;;5039143;28;20398;-78
2024/04/07 08:38:10;;;;;;;2.78;1.20;;;16.30;99.90;;;;;;5034776;28;20034;-78
2024/04/07 08:40:40;;;;;;;4.25;1.17;;;16.30;99.90;;;;;;5037536;28;20037;-78
2024/04/07 08:43:07;;;;;;;4.45;1.30;;;16.30;99.90;;;;;;5039910;28;20498;-77
2024/04/07 08:45:32;;;;;;;2.65;1.05;;;16.40;99.90;;;;;;5036172;28;20033;-77
2024/04/07 08:48:00;;;;;;;2.85;1.30;;;16.40;99.90;;;;;;5035091;28;20045;-78
2024/04/07 08:50:27;;;;;;;5.78;1.45;;;16.50;99.90;;;;;;5041687;28;20040;-78
2024/04/07 08:52:55;;;;;;;6.65;1.70;;;16.60;99.90;;;;;;5042704;28;20051;-78
2024/04/07 08:55:22;;;;;;;2.00;0.90;;;16.70;99.90;;;;;;5041294;28;20047;-78
2024/04/07 08:57:49;;;;;;;5.65;1.20;;;16.90;99.90;;;;;;5045907;28;20059;-78
2024/04/07 09:00:16;;;;;;;6.60;1.30;;;16.90;99.90;;;;;;5040734;28;20045;-77
2024/04/07 09:02:42;;;;;;;5.10;1.30;;;17.10;99.90;;;;;;5045065;28;21961;-77
2024/04/07 09:05:08;;;;;;;5.38;1.20;;;17.20;99.90;;;;;;5041766;28;20044;-77
2024/04/07 09:07:34;;;;;;;3.63;1.05;;;17.20;99.90;;;;;;5048586;28;20037;-78
2024/04/07 09:10:00;;;;;;;4.60;1.10;;;17.30;99.90;;;;;;5050278;28;20033;-78
2024/04/07 09:12:25;;;;;;;7.32;1.30;;;17.30;99.90;;;;;;5035211;28;20041;-78
2024/04/07 09:14:51;;;;;;;6.97;1.17;;;17.30;99.90;;;;;;5045047;28;20072;-77
2024/04/07 09:17:17;;;;;;;4.70;1.35;;;17.40;99.90;;;;;;5036320;28;20124;-77
2024/04/07 09:19:42;;;;;;;5.63;1.20;;;17.40;99.90;;;;;;5047890;28;20064;-77
2024/04/07 09:22:08;;;;;;;2.28;1.02;;;17.40;99.90;;;;;;5044582;28;20501;-77
2024/04/07 09:24:36;;;;;;;2.60;1.00;;;17.40;99.90;;;;;;5038391;28;20048;-77
2024/04/07 09:27:06;;;;;;;5.13;1.10;;;17.40;99.90;;;;;;5040413;28;20040;-77
2024/04/07 09:29:33;;;;;;;4.28;1.48;;;17.30;99.90;;;;;;5041615;28;20132;-78
2024/04/07 09:32:00;;;;;;;3.70;1.08;;;17.20;99.90;;;;;;5022341;28;20052;-77
2024/04/07 09:34:28;;;;;;;3.70;1.33;;;17.10;99.90;;;;;;5040346;28;20041;-77
2024/04/07 09:36:54;;;;;;;2.95;1.00;;;17.00;99.90;;;;;;5016249;28;20085;-76
2024/04/07 09:39:20;;;;;;;4.15;1.10;;;16.90;99.90;;;;;;5038923;28;20122;-78
2024/04/07 09:41:47;;;;;;;4.30;1.00;;;16.80;99.90;;;;;;5035184;28;20041;-78
2024/04/07 09:44:18;;;;;;;4.10;1.00;;;16.80;99.90;;;;;;5016841;28;20168;-76
2024/04/07 09:46:45;;;;;;;5.00;1.20;;;16.80;99.90;;;;;;5027417;28;20490;-76
2024/04/07 09:49:11;;;;;;;2.88;1.20;;;16.80;99.90;;;;;;5043021;28;20033;-76
2024/04/07 09:51:43;;;;;;;3.15;0.93;;;16.90;99.90;;;;;;5047332;28;20777;-77
2024/04/07 09:54:22;;;;;;;3.13;1.02;;;17.00;99.90;;;;;;5039772;28;20116;-77
2024/04/07 09:56:48;;;;;;;3.40;1.30;;;17.00;99.90;;;;;;5036062;28;20059;-78
2024/04/07 09:59:14;;;;;;;3.80;1.30;;;17.00;99.90;;;;;;5044597;28;20049;-79
2024/04/07 10:01:41;;;;;;;4.70;1.17;;;16.90;99.90;;;;;;5040942;28;20041;-78
2024/04/07 10:04:07;;;;;;;5.03;1.35;;;17.00;99.90;;;;;;5042714;28;20041;-78
2024/04/07 10:06:34;;;;;;;5.18;0.98;;;17.30;99.90;;;;;;5036235;28;20044;-78
2024/04/07 10:09:02;;;;;;;5.03;1.05;;;17.60;99.90;;;;;;5041509;28;20041;-78
2024/04/07 10:11:28;;;;;;;4.10;1.40;;;18.00;99.90;;;;;;5033523;28;20051;-78
2024/04/07 10:13:54;;;;;;;4.93;0.95;;;18.30;99.90;;;;;;5044795;28;20124;-78
2024/04/07 10:16:24;;;;;;;2.42;1.08;;;18.40;99.90;;;;;;5039977;28;20093;-79
2024/04/07 10:18:50;;;;;;;3.83;1.08;;;18.50;99.90;;;;;;5047146;28;20131;-78
2024/04/07 10:21:16;;;;;;;2.85;0.98;;;18.40;99.90;;;;;;5045446;28;20048;-79
2024/04/07 10:23:42;;;;;;;5.28;1.58;;;18.30;99.90;;;;;;5036603;28;20131;-79
2024/04/07 10:26:09;;;;;;;4.28;1.10;;;18.20;99.90;;;;;;5045130;28;20843;-79
2024/04/07 10:28:49;;;;;;;3.42;1.23;;;18.30;99.90;;;;;;5020106;28;20119;-78
2024/04/07 10:31:31;;;;;;;3.67;1.00;;;18.50;99.90;;;;;;5035555;28;20041;-77
2024/04/07 10:33:57;;;;;;;4.13;1.02;;;18.60;99.90;;;;;;5042981;28;20041;-78
2024/04/07 10:36:25;;;;;;;3.45;1.33;;;18.70;99.80;;;;;;5039198;28;20076;-78
2024/04/07 10:38:55;;;;;;;2.47;1.10;;;18.80;99.90;;;;;;5028782;28;20098;-78
2024/04/07 10:41:28;;;;;;;4.07;1.00;;;18.80;99.90;;;;;;5041397;28;20060;-78
2024/04/07 10:43:55;;;;;;;2.50;1.10;;;18.90;99.90;;;;;;5033283;28;20075;-79
2024/04/07 10:46:22;;;;;;;4.03;1.10;;;19.00;99.90;;;;;;5033687;28;20124;-78
2024/04/07 10:48:48;;;;;;;;;;;19.00;99.90;;;;;;5033680;28;20041;-79
2024/04/07 10:51:15;;;;;;;3.45;1.30;;;19.20;99.90;;;;;;5043479;28;19944;-78
2024/04/07 10:53:42;;;;;;;4.07;1.20;;;19.20;99.90;;;;;;5034477;28;20046;-79
2024/04/07 10:56:08;;;;;;;3.80;1.20;;;19.20;99.90;;;;;;5042033;28;20093;-77
2024/04/07 10:58:34;;;;;;;4.70;1.27;;;19.30;99.90;;;;;;5040020;28;20537;-78
2024/04/07 11:00:59;;;;;;;4.07;1.33;;;19.50;99.90;;;;;;5036439;28;20428;-79
2024/04/07 11:03:26;;;;;;;5.55;1.27;;;19.70;99.90;;;;;;5043782;28;20040;-77
2024/04/07 11:05:52;;;;;;;3.42;0.90;;;19.80;99.70;;;;;;5034418;28;20949;-77
2024/04/07 11:08:20;;;;;;;2.88;1.10;;;20.00;99.90;;;;;;5043285;28;20045;-77
2024/04/07 11:10:52;;;;;;;2.25;0.98;;;20.20;97.50;;;;;;5036395;28;20081;-77
2024/04/07 11:13:18;;;;;;;3.45;0.98;;;20.30;96.40;;;;;;5043415;28;20041;-78
2024/04/07 11:15:45;;;;;;;4.28;1.30;;;20.50;95.90;;;;;;5044932;28;20417;-78
2024/04/07 11:18:15;;;;;;;5.03;1.25;;;20.60;94.90;;;;;;5045003;28;20041;-78
2024/04/07 11:20:41;;;;;;;2.22;0.90;;;20.70;92.10;;;;;;5035978;28;20041;-78
2024/04/07 11:23:09;;;;;;;4.13;1.08;;;20.70;92.50;;;;;;5037315;28;20045;-78
2024/04/07 11:25:35;;;;;;;4.10;1.20;;;20.70;90.50;;;;;;5037419;28;20115;-77
2024/04/07 11:28:01;;;;;;;3.60;1.15;;;20.70;92.30;;;;;;5038010;28;20075;-78
2024/04/07 11:30:35;;;;;;;3.40;1.02;;;20.80;90.60;;;;;;5029418;28;20494;-78
2024/04/07 11:33:05;;;;;;;3.72;1.08;;;20.80;89.90;;;;;;5053071;28;20108;-77
2024/04/07 11:35:31;;;;;;;3.15;0.98;;;20.90;91.20;;;;;;5039741;28;20101;-78
2024/04/07 11:37:57;;;;;;;;;;;21.00;92.30;;;;;;5038301;28;20068;-78
2024/04/07 11:40:22;;;;;;;2.00;1.00;;;21.10;92.10;;;;;;5031131;28;19991;-77
2024/04/07 11:42:48;;;;;;;2.15;0.80;;;21.10;90.90;;;;;;5041977;28;20127;-78
2024/04/07 11:45:14;;;;;;;5.50;1.25;;;21.10;91.10;;;;;;5035719;28;20044;-77
2024/04/07 11:47:42;;;;;;;6.05;1.20;;;21.00;92.80;;;;;;5033692;28;20722;-78
2024/04/07 11:50:07;;;;;;;3.00;1.30;;;20.90;93.70;;;;;;5040238;28;20398;-77
2024/04/07 11:52:33;;;;;;;3.10;1.02;;;20.90;93.20;;;;;;5031928;28;20041;-78
2024/04/07 11:54:59;;;;;;;4.60;1.10;;;20.90;94.00;;;;;;5043663;28;20585;-77
2024/04/07 11:57:24;;;;;;;3.95;1.20;;;21.00;94.70;;;;;;5043887;28;20037;-78
2024/04/07 11:59:50;;;;;;;5.18;1.33;;;21.10;92.10;;;;;;5041828;28;20515;-78
2024/04/07 12:02:16;;;;;;;3.40;0.93;;;21.20;92.40;;;;;;5024955;28;20498;-77
2024/04/07 12:04:41;;;;;;;;;;;21.30;92.00;;;;;;5039404;28;20178;-77
2024/04/07 12:07:08;;;;;;;2.78;1.00;;;21.30;92.30;;;;;;5040008;28;19928;-77
2024/04/07 12:09:33;;;;;;;2.45;1.20;;;21.30;91.30;;;;;;5036642;28;20044;-77
2024/04/07 12:11:59;;;;;;;2.35;0.90;;;21.20;92.70;;;;;;5043337;28;20041;-77
2024/04/07 12:14:25;;;;;;;4.18;1.00;;;21.20;90.70;;;;;;5032653;28;20046;-77
2024/04/07 12:16:50;;;;;;;2.72;1.20;;;21.30;90.60;;;;;;5044277;28;20040;-78
2024/04/07 12:19:16;;;;;;;3.65;1.00;;;21.40;90.60;;;;;;5039325;28;20037;-78
2024/04/07 12:21:41;;;;;;;4.15;1.10;;;21.40;90.60;;;;;;5037507;28;20639;-77
2024/04/07 12:24:07;;;;;;;3.05;1.15;;;21.30;90.70;;;;;;5038378;28;20131;-78
2024/04/07 12:26:33;;;;;;;2.38;1.00;;;21.20;91.20;;;;;;5032125;28;20234;-77
2024/04/07 12:28:58;;;;;;;2.30;0.80;;;20.90;90.10;;;;;;5038068;28;20045;-77
2024/04/07 12:31:24;;;;;;;4.10;1.08;;;20.70;90.30;;;;;;5032119;28;20124;-77
2024/04/07 12:33:50;;;;;;;3.47;1.02;;;20.70;89.40;;;;;;5041460;28;20049;-77
2024/04/07 12:36:18;;;;;;;4.20;0.90;;;20.80;90.40;;;;;;5038038;28;20687;-78
2024/04/07 12:38:44;;;;;;;5.20;1.27;;;20.80;88.60;;;;;;5030713;28;20041;-77
2024/04/07 12:41:09;;;;;;;0.90;0.68;;;20.90;87.40;;;;;;5027643;28;20038;-78
2024/04/07 12:43:35;;;;;;;3.08;1.02;;;21.00;85.40;;;;;;5033678;28;20045;-78
2024/04/07 12:46:02;;;;;;;2.65;0.82;;;21.10;82.70;;;;;;5041531;28;20032;-78